Time;durP1;ratioP1;P1;durP2;ratioP2;P2;SDS_P1;SDS_P2;PMS_P1;PMS_P2;Temp;Humidity;BMP_temperature;BMP_pressure;BME280_temperature;BME280_humidity;BME280_pressure;Samples;Min_cycle;Max_cycle;Signal;HPM_P1;HPM_P2
2023/03/29 00:00:12;;;;;;;6.13;2.13;;;8.50;99.90;;;;;;5055966;28;20037;-68
2023/03/29 00:02:39;;;;;;;4.82;1.60;;;8.50;99.90;;;;;;5056122;28;20096;-68
2023/03/29 00:05:05;;;;;;;3.05;1.60;;;8.50;99.90;;;;;;5054847;28;20068;-67
2023/03/29 00:07:34;;;;;;;;;;;8.40;99.90;;;;;;5055258;28;20052;-67
2023/03/29 00:10:01;;;;;;;3.83;1.67;;;8.40;99.90;;;;;;5037061;28;19916;-67
2023/03/29 00:12:27;;;;;;;4.20;1.75;;;8.40;99.90;;;;;;5055670;28;20374;-66
2023/03/29 00:14:53;;;;;;;4.43;2.08;;;8.40;99.90;;;;;;5055007;28;20047;-67
2023/03/29 00:17:18;;;;;;;4.18;1.63;;;8.50;99.90;;;;;;5054487;28;20033;-67
2023/03/29 00:19:45;;;;;;;3.93;2.03;;;8.40;99.90;;;;;;5054326;28;20440;-67
2023/03/29 00:22:11;;;;;;;4.28;1.80;;;8.40;99.90;;;;;;5054428;28;20029;-67
2023/03/29 00:24:37;;;;;;;;;;;8.30;99.90;;;;;;5055039;28;20076;-66
2023/03/29 00:27:02;;;;;;;3.20;1.60;;;8.40;99.90;;;;;;5054472;28;19908;-67
2023/03/29 00:29:28;;;;;;;3.05;1.80;;;8.40;99.90;;;;;;5054524;28;20111;-66
2023/03/29 00:31:54;;;;;;;2.83;1.50;;;8.40;99.90;;;;;;5036243;28;20035;-66
2023/03/29 00:34:21;;;;;;;2.33;1.55;;;8.40;99.90;;;;;;5054120;28;20035;-67
2023/03/29 00:36:51;;;;;;;4.38;1.70;;;8.40;99.90;;;;;;5054122;28;20087;-65
2023/03/29 00:39:18;;;;;;;2.47;1.63;;;8.30;99.90;;;;;;5054883;28;20017;-65
2023/03/29 00:41:48;;;;;;;3.88;1.60;;;8.30;99.90;;;;;;5054256;28;20024;-67
2023/03/29 00:44:51;;;;;;;3.30;1.60;;;8.40;99.90;;;;;;5054558;28;20112;-66
2023/03/29 00:47:20;;;;;;;3.40;1.70;;;8.40;99.90;;;;;;5054425;28;20103;-67
2023/03/29 00:49:46;;;;;;;3.40;1.58;;;8.30;99.90;;;;;;5053667;28;20501;-66
2023/03/29 00:52:14;;;;;;;3.28;1.80;;;8.40;99.90;;;;;;5053980;28;20037;-67
2023/03/29 00:54:43;;;;;;;3.50;1.92;;;8.40;99.90;;;;;;5054449;28;20465;-66
2023/03/29 00:57:11;;;;;;;3.42;1.88;;;8.40;99.90;;;;;;5053748;28;20043;-66
2023/03/29 00:59:39;;;;;;;3.53;1.52;;;8.30;99.90;;;;;;5054280;28;20442;-66
2023/03/29 01:02:06;;;;;;;2.85;1.80;;;8.40;99.90;;;;;;5068892;28;20392;-66
2023/03/29 01:04:36;;;;;;;2.63;1.30;;;8.30;99.90;;;;;;5053385;28;20541;-67
2023/03/29 01:07:12;;;;;;;3.60;1.58;;;8.30;99.90;;;;;;5053901;28;20047;-66
2023/03/29 01:09:40;;;;;;;4.40;1.50;;;8.30;99.90;;;;;;5055585;28;20017;-67
2023/03/29 01:12:21;;;;;;;2.10;1.30;;;8.40;99.90;;;;;;5055193;28;20121;-66
2023/03/29 01:14:57;;;;;;;2.25;1.75;;;8.40;99.90;;;;;;5054075;28;20100;-66
2023/03/29 01:17:24;;;;;;;2.57;1.50;;;8.30;99.90;;;;;;5035821;28;20029;-65
2023/03/29 01:20:06;;;;;;;1.77;1.33;;;8.30;99.90;;;;;;5053282;28;20044;-66
2023/03/29 01:23:04;;;;;;;2.67;1.67;;;8.40;99.90;;;;;;5053839;28;20084;-66
2023/03/29 01:26:01;;;;;;;2.83;1.30;;;8.30;99.90;;;;;;5053566;28;20144;-66
2023/03/29 01:28:35;;;;;;;3.20;1.20;;;8.30;99.90;;;;;;5053893;28;20025;-66
2023/03/29 01:31:14;;;;;;;3.35;1.70;;;8.20;99.90;;;;;;5035546;28;20033;-66
2023/03/29 01:33:48;;;;;;;3.10;1.60;;;8.30;99.90;;;;;;5053126;28;20473;-66
2023/03/29 01:36:25;;;;;;;3.97;1.67;;;8.20;99.90;;;;;;5053599;28;20028;-67
2023/03/29 01:38:56;;;;;;;3.53;1.30;;;8.20;99.90;;;;;;5036112;28;20025;-66
2023/03/29 01:41:33;;;;;;;1.85;1.30;;;8.20;99.90;;;;;;5053418;28;20075;-66
2023/03/29 01:44:05;;;;;;;2.08;1.35;;;8.20;99.90;;;;;;5053563;28;20017;-66
2023/03/29 01:46:34;;;;;;;3.60;1.48;;;8.20;99.90;;;;;;5053566;28;20028;-66
2023/03/29 01:49:20;;;;;;;2.35;1.40;;;8.10;99.90;;;;;;5053063;28;20056;-66
2023/03/29 01:51:58;;;;;;;2.03;1.17;;;8.00;99.90;;;;;;5045712;28;20044;-67
2023/03/29 01:54:34;;;;;;;3.53;1.20;;;8.10;99.90;;;;;;5053838;28;20024;-67
2023/03/29 01:57:03;;;;;;;2.72;1.27;;;8.20;99.90;;;;;;5053262;28;20469;-66
2023/03/29 01:59:32;;;;;;;2.83;1.10;;;8.20;99.90;;;;;;5053144;28;20079;-66
2023/03/29 02:02:01;;;;;;;2.72;1.70;;;8.00;99.90;;;;;;5053161;28;20108;-66
2023/03/29 02:04:40;;;;;;;4.93;1.30;;;8.00;99.90;;;;;;5052803;28;20126;-67
2023/03/29 02:07:07;;;;;;;2.25;1.33;;;7.90;99.90;;;;;;5052885;28;20504;-66
2023/03/29 02:09:36;;;;;;;2.63;1.40;;;7.90;99.90;;;;;;5052815;28;20086;-67
2023/03/29 02:12:03;;;;;;;2.30;1.35;;;8.00;99.90;;;;;;5056752;28;20037;-67
2023/03/29 02:14:29;;;;;;;1.63;1.08;;;8.00;99.90;;;;;;5060469;28;20033;-67
2023/03/29 02:16:55;;;;;;;2.70;1.50;;;8.00;99.90;;;;;;5052676;28;20029;-67
2023/03/29 02:19:23;;;;;;;4.07;1.58;;;8.00;99.90;;;;;;5052470;28;20029;-67
2023/03/29 02:21:56;;;;;;;1.67;1.05;;;7.90;99.90;;;;;;5034801;28;20028;-66
2023/03/29 02:24:23;;;;;;;3.47;1.42;;;7.80;99.90;;;;;;5054995;28;20443;-67
2023/03/29 02:26:49;;;;;;;3.30;1.45;;;7.80;99.90;;;;;;5056831;28;20049;-67
2023/03/29 02:29:15;;;;;;;4.07;1.35;;;7.70;99.90;;;;;;5038934;28;20075;-67
2023/03/29 02:31:48;;;;;;;1.95;1.35;;;7.70;99.90;;;;;;5056662;28;20393;-67
2023/03/29 02:34:40;;;;;;;3.47;1.52;;;7.80;99.90;;;;;;5055964;28;20017;-67
2023/03/29 02:37:10;;;;;;;3.70;1.23;;;7.70;99.90;;;;;;5057276;28;20167;-67
2023/03/29 02:39:38;;;;;;;2.88;1.50;;;7.80;99.90;;;;;;5057360;28;20021;-67
2023/03/29 02:42:05;;;;;;;1.98;1.15;;;7.80;99.90;;;;;;5056479;28;20457;-67
2023/03/29 02:44:35;;;;;;;3.83;1.88;;;7.70;99.90;;;;;;5038463;28;20036;-66
2023/03/29 02:47:13;;;;;;;6.30;1.65;;;7.70;99.90;;;;;;5056677;28;20025;-66
2023/03/29 02:49:39;;;;;;;3.78;1.50;;;7.70;99.90;;;;;;5038271;28;20032;-66
2023/03/29 02:52:13;;;;;;;2.53;1.70;;;7.70;99.90;;;;;;5056342;28;20024;-67
2023/03/29 02:54:41;;;;;;;3.42;1.50;;;7.70;99.90;;;;;;5056365;28;20029;-66
2023/03/29 02:57:09;;;;;;;4.70;1.70;;;7.60;99.90;;;;;;5056262;28;20021;-66
2023/03/29 02:59:35;;;;;;;2.80;1.92;;;7.60;99.90;;;;;;5056659;28;20051;-66
2023/03/29 03:02:00;;;;;;;3.92;1.58;;;7.50;99.90;;;;;;5056372;28;20025;-66
2023/03/29 03:04:26;;;;;;;3.03;1.80;;;7.50;99.90;;;;;;5055737;28;20572;-66
2023/03/29 03:06:52;;;;;;;2.58;1.65;;;7.40;99.90;;;;;;5056286;28;20025;-66
2023/03/29 03:09:18;;;;;;;3.70;1.60;;;7.40;99.90;;;;;;5055157;28;20378;-66
2023/03/29 03:11:44;;;;;;;2.95;1.80;;;7.40;99.90;;;;;;5055819;28;20044;-66
2023/03/29 03:14:09;;;;;;;4.53;1.87;;;7.40;99.90;;;;;;5055818;28;20021;-66
2023/03/29 03:16:35;;;;;;;5.20;1.50;;;7.40;99.90;;;;;;5055897;28;20033;-66
2023/03/29 03:19:01;;;;;;;4.18;1.88;;;7.40;99.90;;;;;;5055659;28;20028;-66
2023/03/29 03:21:27;;;;;;;4.03;2.10;;;7.30;99.90;;;;;;5055491;28;20029;-66
2023/03/29 03:23:53;;;;;;;8.50;3.00;;;7.30;99.90;;;;;;5070906;28;20029;-66
2023/03/29 03:26:19;;;;;;;4.63;2.40;;;7.40;99.90;;;;;;5038065;28;20099;-66
2023/03/29 03:28:45;;;;;;;4.60;2.03;;;7.30;99.90;;;;;;5037659;28;20124;-66
2023/03/29 03:31:12;;;;;;;4.88;2.10;;;7.30;99.90;;;;;;5055401;28;20028;-67
2023/03/29 03:33:39;;;;;;;4.57;2.35;;;7.20;99.90;;;;;;5067986;28;20381;-67
2023/03/29 03:36:09;;;;;;;4.47;2.22;;;7.20;99.90;;;;;;5074161;28;20499;-67
2023/03/29 03:38:36;;;;;;;4.13;2.35;;;7.20;99.90;;;;;;5075899;28;20079;-67
2023/03/29 03:41:03;;;;;;;7.47;2.30;;;7.20;99.90;;;;;;5075402;28;20100;-67
2023/03/29 03:43:29;;;;;;;;;;;7.10;99.90;;;;;;5057962;28;20118;-67
2023/03/29 03:45:55;;;;;;;7.18;2.45;;;7.00;99.90;;;;;;5075908;28;19930;-67
2023/03/29 03:48:21;;;;;;;4.15;2.28;;;7.00;99.90;;;;;;5075338;28;20024;-67
2023/03/29 03:50:57;;;;;;;7.10;2.35;;;7.00;99.90;;;;;;5075256;28;20029;-67
2023/03/29 03:53:26;;;;;;;4.28;2.35;;;7.00;99.90;;;;;;5075643;28;20078;-67
2023/03/29 03:55:54;;;;;;;4.28;2.20;;;6.90;99.90;;;;;;5075344;28;20069;-67
2023/03/29 03:58:20;;;;;;;3.92;2.20;;;7.00;99.90;;;;;;5053123;28;20028;-67
2023/03/29 04:00:48;;;;;;;3.10;2.40;;;7.10;99.90;;;;;;5053542;28;20025;-66
2023/03/29 04:03:14;;;;;;;2.83;2.10;;;7.10;99.90;;;;;;5054961;28;20025;-68
2023/03/29 04:05:40;;;;;;;3.97;2.20;;;7.10;99.90;;;;;;5054990;28;20043;-67
2023/03/29 04:08:06;;;;;;;5.05;2.55;;;7.10;99.90;;;;;;5055037;28;20397;-68
2023/03/29 04:10:33;;;;;;;3.88;2.65;;;7.10;99.90;;;;;;5046182;28;20032;-67
2023/03/29 04:13:01;;;;;;;;;;;7.20;99.90;;;;;;5055843;28;20052;-67
2023/03/29 04:15:27;;;;;;;5.22;2.17;;;7.30;99.90;;;;;;5055276;28;19936;-68
2023/03/29 04:17:54;;;;;;;;;;;7.20;99.90;;;;;;5055690;28;20057;-67
2023/03/29 04:20:20;;;;;;;4.55;2.50;;;7.20;99.90;;;;;;5055143;28;19911;-68
2023/03/29 04:22:46;;;;;;;5.03;2.40;;;7.30;99.90;;;;;;5056878;28;20025;-68
2023/03/29 04:25:11;;;;;;;3.83;2.10;;;7.20;99.90;;;;;;5056772;28;20021;-67
2023/03/29 04:27:37;;;;;;;4.57;2.10;;;7.50;99.90;;;;;;5055220;28;20028;-67
2023/03/29 04:30:04;;;;;;;4.50;2.20;;;7.40;99.90;;;;;;5054131;28;20032;-67
2023/03/29 04:32:29;;;;;;;;;;;7.50;99.90;;;;;;5063752;28;20090;-69
2023/03/29 04:34:55;;;;;;;4.43;2.20;;;7.40;99.90;;;;;;5065306;28;20377;-67
2023/03/29 04:37:21;;;;;;;6.87;2.20;;;7.40;99.90;;;;;;5071451;28;20025;-67
2023/03/29 04:39:48;;;;;;;5.20;2.33;;;7.40;99.90;;;;;;5072203;28;20366;-68
2023/03/29 04:42:14;;;;;;;4.22;2.10;;;7.40;99.90;;;;;;5055557;28;20032;-68
2023/03/29 04:44:41;;;;;;;4.68;2.20;;;7.30;99.90;;;;;;5050367;28;20012;-68
2023/03/29 04:47:07;;;;;;;3.65;2.33;;;7.40;99.90;;;;;;5072416;28;20063;-68
2023/03/29 04:49:32;;;;;;;3.87;2.20;;;7.40;99.90;;;;;;5055698;28;20028;-67
2023/03/29 04:51:59;;;;;;;4.93;2.47;;;7.50;99.90;;;;;;5073839;28;20032;-67
2023/03/29 04:54:25;;;;;;;4.32;2.30;;;7.50;99.90;;;;;;5065267;28;20052;-67
2023/03/29 04:56:51;;;;;;;8.50;2.60;;;7.50;99.90;;;;;;5073483;28;20059;-67
2023/03/29 04:59:17;;;;;;;3.75;2.35;;;7.40;99.90;;;;;;5064123;28;20021;-68
2023/03/29 05:01:42;;;;;;;2.97;2.20;;;7.50;99.90;;;;;;5073900;28;20055;-68
2023/03/29 05:04:08;;;;;;;3.87;2.43;;;7.50;99.90;;;;;;5061465;28;20036;-67
2023/03/29 05:06:35;;;;;;;8.73;2.78;;;7.40;99.90;;;;;;5071344;28;20381;-68
2023/03/29 05:09:01;;;;;;;4.15;2.22;;;7.50;99.90;;;;;;5085585;28;20028;-70
2023/03/29 05:11:27;;;;;;;5.83;2.90;;;7.40;99.90;;;;;;5079177;28;20020;-70
2023/03/29 05:13:54;;;;;;;4.43;2.77;;;7.40;99.90;;;;;;5059340;28;20287;-70
2023/03/29 05:16:20;;;;;;;6.22;2.92;;;7.50;99.90;;;;;;5073247;28;20043;-67
2023/03/29 05:18:45;;;;;;;5.33;3.17;;;7.40;99.90;;;;;;5076842;28;20056;-68
2023/03/29 05:21:11;;;;;;;4.80;3.03;;;7.40;99.90;;;;;;5089498;28;20035;-68
2023/03/29 05:23:37;;;;;;;7.50;3.33;;;7.50;99.90;;;;;;5070097;28;20139;-66
2023/03/29 05:26:03;;;;;;;8.70;3.33;;;7.60;99.90;;;;;;5053083;28;20028;-66
2023/03/29 05:28:28;;;;;;;6.68;3.40;;;7.60;99.90;;;;;;5070620;28;20024;-67
2023/03/29 05:31:05;;;;;;;8.30;3.57;;;7.70;99.90;;;;;;5072207;28;20401;-68
2023/03/29 05:33:31;;;;;;;4.95;3.20;;;7.70;99.90;;;;;;5071885;28;20023;-67
2023/03/29 05:36:01;;;;;;;6.32;3.97;;;7.80;99.90;;;;;;5073074;28;20024;-68
2023/03/29 05:38:28;;;;;;;7.68;4.10;;;7.90;99.90;;;;;;5054727;28;20035;-67
2023/03/29 05:40:55;;;;;;;5.80;3.90;;;7.90;99.90;;;;;;5053053;28;20032;-67
2023/03/29 05:43:20;;;;;;;6.05;3.22;;;8.00;99.90;;;;;;5067400;28;20016;-67
2023/03/29 05:45:46;;;;;;;7.70;3.50;;;8.10;99.90;;;;;;5072635;28;20033;-66
2023/03/29 05:48:12;;;;;;;5.63;3.17;;;8.20;99.90;;;;;;5054958;28;20024;-66
2023/03/29 05:50:37;;;;;;;5.57;2.95;;;8.10;99.90;;;;;;5062372;28;20070;-67
2023/03/29 05:53:03;;;;;;;7.60;3.10;;;8.10;99.90;;;;;;5052979;28;20429;-67
2023/03/29 05:55:28;;;;;;;6.07;3.17;;;8.10;99.90;;;;;;5035235;28;20203;-67
2023/03/29 05:57:54;;;;;;;5.00;3.43;;;8.10;99.90;;;;;;5053200;28;20474;-67
2023/03/29 06:00:24;;;;;;;6.70;4.30;;;8.20;99.90;;;;;;5070598;28;20016;-66
2023/03/29 06:02:54;;;;;;;5.40;3.33;;;8.30;99.90;;;;;;5075210;28;20021;-66
2023/03/29 06:05:21;;;;;;;5.85;2.83;;;8.30;99.90;;;;;;5037872;28;20053;-68
2023/03/29 06:07:50;;;;;;;6.17;2.97;;;8.30;99.90;;;;;;5072124;28;20025;-68
2023/03/29 06:10:16;;;;;;;4.53;2.78;;;8.30;99.90;;;;;;5044251;28;20020;-68
2023/03/29 06:12:42;;;;;;;7.72;2.78;;;8.30;99.90;;;;;;5076628;28;20439;-68
2023/03/29 06:15:09;;;;;;;5.43;2.87;;;8.40;99.90;;;;;;5075221;28;20040;-68
2023/03/29 06:17:34;;;;;;;4.70;3.00;;;8.40;99.90;;;;;;5058181;28;20033;-68
2023/03/29 06:20:00;;;;;;;6.75;2.75;;;8.40;99.90;;;;;;5074744;28;20111;-68
2023/03/29 06:22:27;;;;;;;7.05;3.17;;;8.50;99.90;;;;;;5074896;28;20116;-67
2023/03/29 06:24:53;;;;;;;8.95;3.63;;;8.60;99.90;;;;;;5041118;28;20033;-67
2023/03/29 06:27:19;;;;;;;6.03;3.05;;;8.80;99.90;;;;;;5065372;28;20035;-67
2023/03/29 06:29:45;;;;;;;6.70;3.53;;;8.80;99.90;;;;;;5069139;28;20031;-68
2023/03/29 06:32:10;;;;;;;8.07;2.97;;;8.70;99.90;;;;;;5054928;28;20021;-67
2023/03/29 06:34:36;;;;;;;5.20;3.20;;;8.70;99.90;;;;;;5071277;28;20299;-67
2023/03/29 06:37:02;;;;;;;6.63;3.10;;;8.80;99.90;;;;;;5055962;28;20100;-69
2023/03/29 06:39:28;;;;;;;6.13;3.03;;;8.90;99.90;;;;;;5036871;28;20029;-68
2023/03/29 06:41:54;;;;;;;7.82;3.85;;;9.00;99.90;;;;;;5056423;28;20036;-67
2023/03/29 06:44:20;;;;;;;5.40;3.00;;;9.10;99.90;;;;;;5039108;28;20093;-66
2023/03/29 06:46:46;;;;;;;5.60;2.83;;;9.30;99.90;;;;;;5056444;28;20103;-67
2023/03/29 06:49:11;;;;;;;4.90;3.33;;;9.30;99.90;;;;;;5056166;28;20087;-67
2023/03/29 06:51:37;;;;;;;4.70;3.43;;;9.30;99.90;;;;;;5056423;28;20029;-67
2023/03/29 06:54:03;;;;;;;7.63;3.10;;;9.30;99.90;;;;;;5056351;28;20055;-66
2023/03/29 06:56:28;;;;;;;6.43;3.83;;;9.30;99.90;;;;;;5055685;28;20017;-67
2023/03/29 06:58:54;;;;;;;7.43;3.00;;;9.30;99.90;;;;;;5071353;28;20021;-67
2023/03/29 07:01:20;;;;;;;5.00;2.83;;;9.40;99.90;;;;;;5056190;28;20036;-67
2023/03/29 07:03:46;;;;;;;7.40;3.03;;;9.60;99.90;;;;;;5056095;28;20024;-67
2023/03/29 07:06:13;;;;;;;6.03;3.20;;;9.70;99.90;;;;;;5055959;28;20067;-67
2023/03/29 07:08:42;;;;;;;4.57;3.20;;;9.70;99.90;;;;;;5065112;28;20016;-68
2023/03/29 07:11:11;;;;;;;5.18;2.75;;;9.60;99.90;;;;;;5075188;28;20036;-68
2023/03/29 07:13:38;;;;;;;6.75;3.00;;;9.70;99.90;;;;;;5076132;28;20025;-68
2023/03/29 07:16:05;;;;;;;9.13;2.97;;;9.60;99.90;;;;;;5074658;28;20021;-68
2023/03/29 07:18:30;;;;;;;;;;;9.50;99.90;;;;;;5057756;28;20448;-68
2023/03/29 07:20:56;;;;;;;7.22;3.03;;;9.60;99.90;;;;;;5075844;28;19904;-68
2023/03/29 07:23:22;;;;;;;7.50;3.28;;;9.50;99.90;;;;;;5075248;28;20020;-67
2023/03/29 07:25:47;;;;;;;5.93;3.03;;;9.60;99.90;;;;;;5074505;28;20473;-67
2023/03/29 07:28:13;;;;;;;7.23;3.47;;;9.50;99.90;;;;;;5075579;28;20107;-69
2023/03/29 07:30:39;;;;;;;3.97;2.93;;;9.50;99.90;;;;;;5075749;28;20025;-68
2023/03/29 07:33:05;;;;;;;5.05;3.15;;;9.60;99.90;;;;;;5057574;28;20055;-68
2023/03/29 07:35:31;;;;;;;6.83;3.50;;;9.60;99.90;;;;;;5075576;28;20025;-68
2023/03/29 07:37:57;;;;;;;;;;;9.70;99.90;;;;;;5076187;28;20025;-68
2023/03/29 07:40:24;;;;;;;6.25;2.90;;;9.80;99.90;;;;;;5065939;28;20372;-68
2023/03/29 07:42:52;;;;;;;4.90;2.83;;;9.80;99.90;;;;;;5055235;28;20436;-68
2023/03/29 07:45:20;;;;;;;4.70;3.15;;;9.90;99.90;;;;;;5037454;28;20028;-68
2023/03/29 07:47:47;;;;;;;5.13;3.00;;;9.90;99.90;;;;;;5055778;28;20389;-68
2023/03/29 07:50:14;;;;;;;5.97;3.20;;;9.90;99.90;;;;;;5055170;28;20029;-68
2023/03/29 07:52:39;;;;;;;6.07;3.50;;;9.90;99.90;;;;;;5055562;28;20105;-70
2023/03/29 07:55:08;;;;;;;5.70;3.38;;;9.90;99.90;;;;;;5055245;28;20430;-68
2023/03/29 07:57:34;;;;;;;6.60;3.15;;;10.00;99.90;;;;;;5037018;28;20029;-68
2023/03/29 08:00:00;;;;;;;5.93;3.13;;;9.90;99.90;;;;;;5036576;28;20021;-68
2023/03/29 08:02:26;;;;;;;5.35;3.65;;;10.00;99.90;;;;;;5056075;28;20377;-69
2023/03/29 08:04:53;;;;;;;7.30;3.67;;;10.10;99.90;;;;;;5037750;28;20025;-68
2023/03/29 08:07:19;;;;;;;5.93;3.72;;;10.30;99.90;;;;;;5055587;28;20033;-67
2023/03/29 08:09:45;;;;;;;;;;;10.30;99.90;;;;;;5056116;28;20098;-67
2023/03/29 08:12:10;;;;;;;5.93;3.40;;;10.50;99.90;;;;;;5055809;28;19913;-68
2023/03/29 08:14:37;;;;;;;5.03;3.10;;;10.70;99.90;;;;;;5055661;28;20025;-67
2023/03/29 08:17:02;;;;;;;;;;;10.80;99.90;;;;;;5055721;28;20106;-67
2023/03/29 08:19:28;;;;;;;7.78;3.90;;;10.90;99.90;;;;;;5036988;28;20353;-68
2023/03/29 08:21:53;;;;;;;6.83;3.40;;;11.10;99.90;;;;;;5036115;28;20025;-68
2023/03/29 08:24:20;;;;;;;8.47;3.97;;;11.10;99.90;;;;;;5054855;28;20040;-68
2023/03/29 08:26:45;;;;;;;11.18;3.38;;;11.20;99.90;;;;;;5054457;28;20029;-67
2023/03/29 08:29:11;;;;;;;5.88;2.88;;;11.30;99.90;;;;;;5054870;28;20021;-68
2023/03/29 08:31:36;;;;;;;5.60;2.90;;;11.30;99.90;;;;;;5054917;28;20489;-68
2023/03/29 08:34:02;;;;;;;5.27;2.77;;;11.40;99.90;;;;;;5055168;28;20090;-68
2023/03/29 08:36:28;;;;;;;6.00;3.10;;;11.50;99.90;;;;;;5064158;28;20417;-69
2023/03/29 08:38:54;;;;;;;7.50;4.50;;;11.60;99.90;;;;;;5073662;28;20040;-68
2023/03/29 08:41:56;;;;;;;6.50;3.00;;;11.70;99.90;;;;;;5073401;28;20025;-69
2023/03/29 08:44:33;;;;;;;4.88;3.00;;;11.90;99.90;;;;;;5073829;28;20608;-68
2023/03/29 08:47:06;;;;;;;;;;;12.00;99.90;;;;;;5073658;28;20039;-67
2023/03/29 08:49:32;;;;;;;7.03;3.00;;;12.10;99.90;;;;;;5074184;28;19904;-68
2023/03/29 08:52:00;;;;;;;;;;;12.40;99.90;;;;;;5074195;28;20021;-68
2023/03/29 08:54:38;;;;;;;5.95;2.95;;;12.60;99.90;;;;;;5073923;28;19904;-67
2023/03/29 08:57:24;;;;;;;5.78;2.72;;;12.80;99.90;;;;;;5055550;28;20039;-69
2023/03/29 08:59:52;;;;;;;8.90;3.85;;;12.90;99.90;;;;;;5069952;28;20029;-67
2023/03/29 09:02:23;;;;;;;4.65;2.90;;;13.20;99.80;;;;;;5053886;28;20017;-68
2023/03/29 09:04:51;;;;;;;8.02;3.03;;;13.50;99.00;;;;;;5036070;28;20021;-68
2023/03/29 09:07:16;;;;;;;5.20;2.85;;;13.70;98.40;;;;;;5053889;28;20418;-67
2023/03/29 09:09:42;;;;;;;6.87;2.97;;;13.70;98.30;;;;;;5069359;28;20025;-68
2023/03/29 09:12:28;;;;;;;4.40;2.78;;;13.80;97.90;;;;;;5053235;28;20124;-68
2023/03/29 09:15:09;;;;;;;6.35;2.88;;;13.90;97.60;;;;;;5053652;28;20401;-67
2023/03/29 09:17:42;;;;;;;11.82;6.03;;;14.20;96.90;;;;;;5068877;28;20032;-68
2023/03/29 09:20:43;;;;;;;4.32;2.63;;;14.30;97.00;;;;;;5053306;28;20021;-67
2023/03/29 09:23:45;;;;;;;5.50;2.50;;;14.40;96.30;;;;;;5051080;28;20120;-68
2023/03/29 09:26:37;;;;;;;5.72;2.67;;;14.50;96.20;;;;;;5053626;28;20481;-68
2023/03/29 09:29:13;;;;;;;6.32;2.35;;;14.60;96.10;;;;;;5052768;28;20029;-69
2023/03/29 09:31:43;;;;;;;6.00;2.42;;;14.80;95.70;;;;;;5035516;28;20013;-67
2023/03/29 09:34:19;;;;;;;4.70;2.13;;;15.10;94.50;;;;;;5035520;28;20534;-68
2023/03/29 09:37:10;;;;;;;5.82;2.47;;;15.30;94.00;;;;;;5053293;28;20036;-68
2023/03/29 09:39:37;;;;;;;6.00;1.88;;;15.70;93.70;;;;;;5053760;28;20484;-68
2023/03/29 09:42:08;;;;;;;4.75;2.00;;;16.80;92.40;;;;;;5035195;28;20025;-67
2023/03/29 09:44:42;;;;;;;4.22;2.28;;;17.80;90.80;;;;;;5035065;28;20375;-68
2023/03/29 09:47:29;;;;;;;5.95;2.25;;;17.60;89.00;;;;;;5053774;28;20021;-68
2023/03/29 09:50:09;;;;;;;3.17;1.80;;;17.30;89.70;;;;;;5053971;28;20040;-67
2023/03/29 09:52:35;;;;;;;6.85;2.33;;;17.20;90.40;;;;;;5053381;28;20024;-70
2023/03/29 09:55:02;;;;;;;6.60;2.25;;;17.00;90.20;;;;;;5053101;28;20443;-67
2023/03/29 09:57:29;;;;;;;6.63;2.78;;;16.60;90.10;;;;;;5053283;28;20029;-68
2023/03/29 09:59:56;;;;;;;6.45;3.00;;;16.30;90.70;;;;;;5052886;28;20025;-67
2023/03/29 10:02:22;;;;;;;5.57;2.38;;;16.40;90.90;;;;;;5053027;28;20056;-67
2023/03/29 10:04:54;;;;;;;3.78;2.03;;;16.40;90.40;;;;;;5034413;28;20051;-67
2023/03/29 10:07:20;;;;;;;6.47;2.92;;;16.20;90.30;;;;;;5052840;28;20039;-68
2023/03/29 10:09:49;;;;;;;6.38;2.20;;;16.20;90.60;;;;;;5052756;28;20100;-69
2023/03/29 10:12:15;;;;;;;7.82;2.15;;;16.00;90.90;;;;;;5052712;28;20033;-68
2023/03/29 10:14:42;;;;;;;;;;;16.40;90.60;;;;;;5035356;28;20071;-68
2023/03/29 10:17:38;;;;;;;5.50;2.30;;;16.50;90.40;;;;;;5052928;28;19915;-68
2023/03/29 10:20:06;;;;;;;4.38;2.75;;;16.40;90.60;;;;;;5051438;28;20041;-69
2023/03/29 10:22:36;;;;;;;6.60;2.60;;;16.50;90.50;;;;;;5035053;28;20382;-68
2023/03/29 10:25:03;;;;;;;7.13;2.33;;;16.90;90.30;;;;;;5054875;28;20052;-69
2023/03/29 10:27:34;;;;;;;5.72;2.30;;;17.20;89.50;;;;;;5072866;28;20025;-69
2023/03/29 10:30:08;;;;;;;5.38;2.45;;;17.60;88.60;;;;;;5072839;28;20021;-67
2023/03/29 10:32:35;;;;;;;6.32;2.13;;;18.50;86.90;;;;;;5073618;28;20029;-68
2023/03/29 10:35:29;;;;;;;4.63;2.05;;;19.20;84.50;;;;;;5073172;28;20036;-67
2023/03/29 10:37:58;;;;;;;4.40;2.28;;;20.90;80.40;;;;;;5053770;28;20025;-67
2023/03/29 10:40:30;;;;;;;5.35;2.03;;;21.40;77.80;;;;;;5053037;28;20021;-68
2023/03/29 10:43:18;;;;;;;3.55;2.03;;;22.10;75.50;;;;;;5052637;28;20070;-68
2023/03/29 10:45:50;;;;;;;5.57;1.90;;;21.90;73.90;;;;;;5054790;28;20029;-68
2023/03/29 10:48:18;;;;;;;4.03;1.77;;;21.70;73.50;;;;;;5056701;28;20381;-68
2023/03/29 10:50:48;;;;;;;4.15;1.80;;;21.70;72.40;;;;;;5038891;28;20043;-68
2023/03/29 10:53:30;;;;;;;4.13;2.00;;;21.20;72.30;;;;;;5072046;28;20389;-67
2023/03/29 10:56:38;;;;;;;5.65;2.05;;;20.90;72.80;;;;;;5056484;28;20017;-69
2023/03/29 10:59:13;;;;;;;;;;;22.20;71.90;;;;;;5056717;28;20029;-69
2023/03/29 11:02:01;;;;;;;3.83;1.98;;;23.50;68.40;;;;;;5056276;28;20043;-68
2023/03/29 11:04:38;;;;;;;3.30;1.60;;;23.60;67.00;;;;;;5056096;28;20028;-68
2023/03/29 11:07:22;;;;;;;3.42;1.83;;;22.70;67.20;;;;;;5056379;28;20056;-68
2023/03/29 11:09:54;;;;;;;3.28;1.67;;;21.60;68.80;;;;;;5055816;28;20033;-69
2023/03/29 11:12:34;;;;;;;3.22;1.50;;;20.40;71.00;;;;;;5056022;28;20028;-68
2023/03/29 11:15:33;;;;;;;2.35;1.30;;;19.50;71.70;;;;;;5056046;28;20100;-69
2023/03/29 11:18:17;;;;;;;3.53;1.50;;;18.90;73.70;;;;;;5068540;28;20024;-67
2023/03/29 11:21:01;;;;;;;3.38;1.50;;;18.50;74.20;;;;;;5058609;28;20012;-67
2023/03/29 11:23:44;;;;;;;4.82;1.80;;;18.30;75.10;;;;;;5077352;28;20385;-68
2023/03/29 11:26:39;;;;;;;2.80;1.52;;;18.20;75.70;;;;;;5061859;28;20103;-70
2023/03/29 11:29:24;;;;;;;7.88;1.63;;;18.20;75.70;;;;;;5033023;28;20448;-68
2023/03/29 11:32:09;;;;;;;3.17;1.70;;;18.50;75.70;;;;;;5056094;28;20071;-70
2023/03/29 11:35:12;;;;;;;3.53;1.58;;;18.50;76.00;;;;;;5037648;28;20029;-68
2023/03/29 11:38:07;;;;;;;3.05;1.50;;;18.50;75.90;;;;;;5038137;28;20465;-68
2023/03/29 11:40:38;;;;;;;3.15;1.60;;;18.20;76.60;;;;;;5055938;28;20104;-68
2023/03/29 11:43:24;;;;;;;2.53;1.42;;;17.90;75.80;;;;;;5037997;28;20029;-68
2023/03/29 11:45:59;;;;;;;2.45;1.38;;;17.50;76.90;;;;;;5071693;28;20027;-69
2023/03/29 11:48:33;;;;;;;2.58;1.40;;;17.50;77.60;;;;;;5075669;28;20024;-70
2023/03/29 11:51:05;;;;;;;5.78;2.25;;;17.50;77.50;;;;;;5057457;28;20128;-68
2023/03/29 11:53:44;;;;;;;6.82;2.13;;;17.60;77.80;;;;;;5075239;28;20484;-70
2023/03/29 11:56:14;;;;;;;6.80;2.15;;;17.60;78.00;;;;;;5062755;28;20074;-70
2023/03/29 11:58:46;;;;;;;4.28;1.73;;;17.50;78.00;;;;;;5057428;28;20124;-70
2023/03/29 12:01:22;;;;;;;4.47;1.70;;;17.60;78.20;;;;;;5073094;28;20062;-69
2023/03/29 12:04:10;;;;;;;4.05;1.90;;;17.50;78.10;;;;;;5064759;28;20427;-71
2023/03/29 12:06:44;;;;;;;4.10;1.42;;;17.70;78.70;;;;;;5055343;28;20029;-71
2023/03/29 12:09:35;;;;;;;7.78;2.05;;;18.10;77.70;;;;;;5037301;28;20017;-70
2023/03/29 12:12:16;;;;;;;3.30;1.60;;;18.30;76.70;;;;;;5055449;28;20040;-73
2023/03/29 12:15:09;;;;;;;3.25;1.77;;;18.20;77.40;;;;;;5037359;28;20492;-72
2023/03/29 12:18:02;;;;;;;7.35;2.00;;;18.10;77.60;;;;;;5040388;28;20114;-72
2023/03/29 12:20:31;;;;;;;4.07;1.70;;;17.90;78.00;;;;;;5041648;28;20013;-73
2023/03/29 12:22:56;;;;;;;6.43;1.77;;;17.80;78.60;;;;;;5051160;28;20032;-72
2023/03/29 12:25:47;;;;;;;4.13;2.10;;;17.70;78.80;;;;;;5042072;28;20553;-73
2023/03/29 12:28:41;;;;;;;5.85;1.98;;;17.60;79.30;;;;;;5052169;28;20036;-72
2023/03/29 12:31:32;;;;;;;3.60;2.17;;;17.70;79.20;;;;;;5054984;28;20048;-70
2023/03/29 12:34:19;;;;;;;2.78;1.75;;;17.70;80.10;;;;;;5053402;28;20056;-69
2023/03/29 12:37:07;;;;;;;4.75;1.73;;;17.60;81.00;;;;;;5076339;28;20036;-69
2023/03/29 12:39:32;;;;;;;;;;;17.60;81.80;;;;;;5074253;28;20116;-71
2023/03/29 12:42:19;;;;;;;7.40;2.30;;;17.70;82.00;;;;;;5057329;28;19936;-72
2023/03/29 12:44:49;;;;;;;11.83;1.87;;;17.60;81.80;;;;;;5075650;28;20438;-72
2023/03/29 12:47:22;;;;;;;6.95;1.80;;;17.40;81.60;;;;;;5056112;28;20036;-73
2023/03/29 12:49:55;;;;;;;10.23;2.35;;;17.30;82.10;;;;;;5074444;28;20024;-71
2023/03/29 12:52:31;;;;;;;7.30;1.85;;;17.20;82.50;;;;;;5055603;28;20032;-70
2023/03/29 12:55:00;;;;;;;8.25;2.15;;;17.30;82.10;;;;;;5036063;28;20024;-71
2023/03/29 12:57:38;;;;;;;9.07;3.60;;;17.50;82.50;;;;;;5035970;28;20118;-71
2023/03/29 13:00:25;;;;;;;5.43;2.72;;;17.60;82.80;;;;;;5054054;28;20028;-71
2023/03/29 13:03:18;;;;;;;6.60;2.33;;;17.70;83.10;;;;;;5054400;28;20021;-71
2023/03/29 13:05:44;;;;;;;5.78;1.55;;;17.70;83.60;;;;;;5054021;28;20033;-70
2023/03/29 13:08:32;;;;;;;4.53;2.13;;;17.70;85.00;;;;;;5053807;28;20021;-71
2023/03/29 13:10:58;;;;;;;4.43;1.20;;;17.50;86.60;;;;;;5034728;28;20048;-70
2023/03/29 13:13:31;;;;;;;3.53;1.25;;;17.40;88.80;;;;;;5068469;28;20029;-70
2023/03/29 13:16:12;;;;;;;5.07;1.60;;;17.10;90.60;;;;;;5052891;28;20029;-71
2023/03/29 13:19:06;;;;;;;2.22;1.17;;;16.70;92.70;;;;;;5053307;28;20468;-70